• Join FlightAware (Why Join?)
  • Login
  • US Flag 
04:01AM EDT


 

Airport Tracker/Info


-or-


 

Live Flight TrackerFlight Track Log ✈ AMF1324 ✈ 08-Nov-2013 ✈ KBGM - KBUF

Flight Track Log - Related Links

Times and Time Zones

All times are in EST time to prevent confusion due to time zone crossing. See the AMF1324 flight status page for this flight to view local times or setup timezone preferences in your user account.

Time Position Orientation Groundspeed Altitude Reporting Facility
EST Latitude Longitude Course Direction KTS MPH feet Rate Location/Type
08:36AM 42.1975 -76.0478 304° West 181 208 5,500  Level Cleveland Center
08:37AM 42.1869 -76.0994 255° West 170 196 7,500 2,640 Climbing New York Center
08:38AM 42.1778 -76.1631 259° West 175 201 10,100 2,220 Climbing New York Center
08:39AM 42.1914 -76.2286 286° West 175 201 12,000 900 Climbing New York Center
08:40AM 42.2214 -76.3039 298° West 211 243 12,000  Level New York Center
08:41AM 42.2819 -76.2420 304° West  Level Estimated
08:41AM 42.2442 -76.3900 290° West 224 258 12,000  Level New York Center
08:42AM 42.2958 -76.5006 302° West 242 278 12,000  Level Cleveland Center
08:43AM 42.3311 -76.5786 301° West 243 280 12,000  Level Cleveland Center
08:44AM 42.3689 -76.6767 298° West 246 283 12,000  Level Cleveland Center
08:45AM 42.4033 -76.7558 301° West 246 283 12,000  Level Cleveland Center
08:46AM 42.4308 -76.8392 294° West 243 280 12,000  Level Cleveland Center
08:47AM 42.4600 -76.9208 296° West 241 277 12,000  Level Cleveland Center
08:48AM 42.4919 -76.9994 299° West 241 277 12,000  Level Cleveland Center
08:49AM 42.5281 -77.0764 303° West 243 280 12,000  Level Cleveland Center
08:50AM 42.5694 -77.1683 301° West 241 277 12,000  Level Cleveland Center
08:51AM 42.5997 -77.2481 297° West 240 276 12,000 -60 Level Cleveland Center
08:52AM 42.6353 -77.3261 302° West 242 278 11,900  Descending Cleveland Center
08:53AM 42.6744 -77.3992 306° West 242 278 12,000  Climbing Cleveland Center
08:55AM 42.7136 -77.4683 308° West 236 272 12,000  Level Cleveland Center
08:56AM 42.7553 -77.5578 302° West 237 273 12,000  Level Cleveland Center
08:57AM 42.7917 -77.6300 304° West 235 270 12,000 -60 Level Cleveland Center
08:58AM 42.8203 -77.7092 296° West 236 272 11,900 -120 Descending Cleveland Center
08:59AM 42.8461 -77.7911 293° West 250 288 11,800 -180 Descending Cleveland Center
09:00AM 42.8342 -77.9025 262° West 249 287 11,600 -420 Descending Cleveland Center
09:01AM 42.8347 -77.9964 270° West 250 288 11,000 -360 Descending Cleveland Center
09:02AM 42.8411 -78.0856 276° West 239 275 10,900 -420 Descending Cleveland Center
09:03AM 42.8481 -78.1747 276° West 238 274 10,200 -1,440 Descending Cleveland Center
09:04AM 42.8550 -78.2775 275° West 243 280 8,000 -2,280 Descending Cleveland Center
09:05AM 42.8647 -78.3700 278° West 237 273 5,600 -1,920 Descending Cleveland Center
09:06AM 42.8722 -78.4589 277° West 224 258 4,100 -960 Descending Cleveland Center
09:07AM 42.8875 -78.5342 286° West 197 227 3,700 -780 Descending Cleveland Center
09:08AM 42.9017 -78.6006 286° West 193 222 2,500 -900 Descending Cleveland Center
09:08AM 42.9000 -78.6333 266° West 166 191 2,400 -720 Descending Buffalo TRACON
09:09AM 42.9167 -78.6833 294° West 113 130 1,500 -780 Descending Buffalo TRACON
09:10AM 42.9333 -78.7167 304° West 114 131 1,000 -600 Descending Buffalo TRACON
09:12AM 42.9404 -78.7306 270° West  Level Estimated
09:19AM 42.9404 -78.7306 270° West  Level Estimated